createdAt,value
2019-05-22T00:00:28.516Z,27.37
2019-05-22T00:02:58.826Z,29.90
2019-05-22T00:05:32.239Z,27.83
2019-05-22T00:10:54.105Z,22.37
2019-05-22T00:13:25.750Z,25.27
2019-05-22T00:15:57.282Z,20.03
2019-05-22T00:18:26.280Z,21.13
2019-05-22T00:20:55.891Z,21.73
2019-05-22T00:23:26.493Z,18.47
2019-05-22T00:25:55.287Z,18.83
2019-05-22T00:28:25.663Z,17.50
2019-05-22T00:30:55.768Z,14.73
2019-05-22T00:33:26.282Z,22.33
2019-05-22T00:35:56.707Z,17.17
2019-05-22T00:38:25.389Z,14.57
2019-05-22T00:40:55.572Z,14.80
2019-05-22T00:43:34.760Z,15.07
2019-05-22T00:46:09.531Z,14.23
2019-05-22T00:48:41.713Z,17.93
2019-05-22T00:51:29.179Z,14.53
2019-05-22T00:54:03.024Z,18.40
2019-05-22T00:56:33.208Z,17.93
2019-05-22T00:59:06.228Z,19.07
2019-05-22T01:01:38.946Z,18.77
2019-05-22T01:04:09.387Z,19.30
2019-05-22T01:06:38.577Z,16.63
2019-05-22T01:09:10.281Z,15.77
2019-05-22T01:11:39.772Z,17.53
2019-05-22T01:14:09.624Z,15.67
2019-05-22T01:16:39.784Z,12.63
2019-05-22T01:19:09.492Z,13.80
2019-05-22T01:21:38.377Z,10.80
2019-05-22T01:24:07.828Z,12.10
2019-05-22T01:26:36.920Z,12.93
2019-05-22T01:29:06.224Z,12.07
2019-05-22T01:31:37.572Z,13.33
2019-05-22T01:34:09.687Z,14.30
2019-05-22T01:36:49.505Z,11.20
2019-05-22T01:39:37.932Z,13.27
2019-05-22T01:42:11.439Z,12.77
2019-05-22T01:44:40.818Z,12.20
2019-05-22T01:47:13.477Z,14.03
2019-05-22T01:49:46.954Z,12.17
2019-05-22T01:52:17.073Z,11.93
2019-05-22T01:54:46.771Z,13.77
2019-05-22T01:57:16.039Z,10.43
2019-05-22T01:59:45.299Z,12.13
2019-05-22T02:02:14.446Z,9.53
2019-05-22T02:04:43.024Z,9.57
2019-05-22T02:07:11.893Z,9.77
2019-05-22T02:09:42.203Z,8.50
2019-05-22T02:12:17.578Z,7.80
2019-05-22T02:14:50.572Z,8.77
2019-05-22T02:17:22.520Z,8.80
2019-05-22T02:19:51.330Z,9.33
2019-05-22T02:22:20.168Z,7.10
2019-05-22T02:24:51.626Z,8.30
2019-05-22T02:27:21.382Z,6.70
2019-05-22T02:29:52.270Z,8.27
2019-05-22T02:32:21.253Z,7.50
2019-05-22T02:34:50.339Z,8.13
2019-05-22T02:37:20.855Z,7.47
2019-05-22T02:39:50.440Z,9.87
2019-05-22T02:42:49.400Z,8.33
2019-05-22T02:45:18.585Z,8.50
2019-05-22T02:47:49.169Z,9.20
2019-05-22T02:50:18.659Z,9.93
2019-05-22T02:52:48.101Z,8.90
2019-05-22T02:55:17.724Z,7.77
2019-05-22T02:57:46.628Z,8.97
2019-05-22T03:00:16.941Z,8.60
2019-05-22T03:02:54.310Z,9.23
2019-05-22T03:05:24.941Z,8.93
2019-05-22T03:07:54.721Z,10.70
2019-05-22T03:10:24.982Z,9.90
2019-05-22T03:12:53.797Z,9.93
2019-05-22T03:15:24.528Z,10.37
2019-05-22T03:18:02.387Z,11.77
2019-05-22T03:20:33.346Z,9.80
2019-05-22T03:23:35.236Z,9.80
2019-05-22T03:26:05.561Z,10.93
2019-05-22T03:28:34.996Z,10.77
2019-05-22T03:31:05.494Z,11.03
2019-05-22T03:33:34.621Z,10.00
2019-05-22T03:36:12.569Z,11.13
2019-05-22T03:38:41.979Z,22.00
2019-05-22T03:41:12.993Z,12.23
2019-05-22T03:43:45.131Z,11.37
2019-05-22T03:46:31.906Z,12.90
2019-05-22T03:49:01.176Z,12.07
2019-05-22T03:51:30.516Z,12.13
2019-05-22T03:53:59.175Z,10.20
2019-05-22T03:56:28.397Z,9.80
2019-05-22T03:58:57.377Z,11.20
2019-05-22T04:01:26.345Z,9.77
2019-05-22T04:03:55.609Z,12.67
2019-05-22T04:06:25.276Z,8.80
2019-05-22T04:08:54.314Z,10.27
2019-05-22T04:11:24.692Z,9.50
2019-05-22T04:13:53.655Z,10.20
2019-05-22T04:16:26.940Z,9.00
2019-05-22T04:18:57.879Z,10.47
2019-05-22T04:21:27.015Z,11.93
2019-05-22T04:23:55.620Z,10.53
2019-05-22T04:26:24.578Z,11.43
2019-05-22T04:28:55.918Z,8.53
2019-05-22T04:31:30.349Z,7.33
2019-05-22T04:33:59.769Z,7.80
2019-05-22T04:36:29.288Z,10.33
2019-05-22T04:39:00.763Z,9.57
2019-05-22T04:41:30.534Z,9.03
2019-05-22T04:43:59.562Z,10.00
2019-05-22T04:46:28.095Z,9.20
2019-05-22T04:48:57.693Z,12.47
2019-05-22T04:51:29.091Z,11.50
2019-05-22T04:53:58.294Z,10.03
2019-05-22T04:56:27.898Z,11.53
2019-05-22T04:58:57.487Z,8.30
2019-05-22T05:01:26.603Z,8.93
2019-05-22T05:03:55.301Z,7.93
2019-05-22T05:06:26.005Z,10.20
2019-05-22T05:08:55.223Z,8.90
2019-05-22T05:11:24.585Z,7.23
2019-05-22T05:13:53.453Z,7.40
2019-05-22T05:16:22.223Z,7.10
2019-05-22T05:18:50.803Z,7.40
2019-05-22T05:21:19.613Z,7.43
2019-05-22T05:23:48.398Z,9.33
2019-05-22T05:26:17.134Z,7.43
2019-05-22T05:28:46.396Z,8.53
2019-05-22T05:31:15.321Z,8.13
2019-05-22T05:33:56.104Z,6.97
2019-05-22T05:36:24.897Z,7.97
2019-05-22T05:38:54.761Z,11.13
2019-05-22T05:41:23.340Z,8.10
2019-05-22T05:43:52.258Z,8.63
2019-05-22T05:46:21.166Z,6.40
2019-05-22T05:48:50.488Z,9.90
2019-05-22T05:51:22.191Z,6.83
2019-05-22T05:54:06.107Z,7.13
2019-05-22T05:56:37.556Z,8.00
2019-05-22T05:59:07.642Z,7.30
2019-05-22T06:01:41.098Z,7.60
2019-05-22T06:04:10.135Z,10.20
2019-05-22T06:06:44.384Z,8.07
2019-05-22T06:09:21.313Z,6.23
2019-05-22T06:11:55.099Z,6.90
2019-05-22T06:14:30.135Z,9.17
2019-05-22T06:17:24.746Z,7.07
2019-05-22T06:19:59.910Z,8.23
2019-05-22T06:22:29.164Z,7.80
2019-05-22T06:25:03.950Z,9.30
2019-05-22T06:27:44.505Z,8.23
2019-05-22T06:30:20.202Z,9.50
2019-05-22T06:33:11.297Z,10.50
2019-05-22T06:35:42.484Z,10.67
2019-05-22T06:38:47.302Z,8.90
2019-05-22T06:41:17.255Z,9.20
2019-05-22T06:43:48.856Z,9.90
2019-05-22T06:46:37.076Z,11.17
2019-05-22T06:49:09.071Z,8.13
2019-05-22T06:51:37.596Z,9.87
2019-05-22T06:54:06.156Z,8.53
2019-05-22T06:56:34.698Z,13.47
2019-05-22T06:59:03.282Z,7.70
2019-05-22T07:01:32.915Z,7.50
2019-05-22T07:04:01.604Z,9.40
2019-05-22T07:06:30.147Z,13.17
2019-05-22T07:08:59.527Z,10.63
2019-05-22T07:11:28.087Z,10.07
2019-05-22T07:13:59.293Z,9.83
2019-05-22T07:16:28.202Z,9.60
2019-05-22T07:18:57.545Z,7.37
2019-05-22T07:21:34.036Z,7.37
2019-05-22T07:23:57.586Z,8.17
2019-05-22T07:26:26.528Z,6.17
2019-05-22T07:28:55.547Z,7.90
2019-05-22T07:31:24.144Z,6.93
2019-05-22T07:33:52.995Z,5.93
2019-05-22T07:36:22.743Z,6.43
2019-05-22T07:38:51.517Z,6.03
2019-05-22T07:41:20.821Z,7.37
2019-05-22T07:43:49.495Z,8.23
2019-05-22T07:46:18.099Z,6.27
2019-05-22T07:48:47.042Z,6.93
2019-05-22T07:51:17.577Z,12.57
2019-05-22T07:53:47.089Z,7.57
2019-05-22T07:56:16.980Z,6.80
2019-05-22T07:58:46.144Z,6.60
2019-05-22T08:01:16.109Z,7.97
2019-05-22T08:03:46.336Z,5.70
2019-05-22T08:06:15.843Z,8.43
2019-05-22T08:08:45.522Z,7.73
2019-05-22T08:11:14.592Z,6.20
2019-05-22T08:13:44.436Z,7.17
2019-05-22T08:16:13.897Z,6.20
2019-05-22T08:18:43.001Z,8.17
2019-05-22T08:21:12.119Z,9.43
2019-05-22T08:23:42.186Z,7.00
2019-05-22T08:26:12.569Z,6.37
2019-05-22T08:28:41.828Z,7.53
2019-05-22T08:31:12.259Z,8.43
2019-05-22T08:33:40.958Z,8.10
2019-05-22T08:36:09.702Z,8.57
2019-05-22T08:38:39.045Z,9.63
2019-05-22T08:41:09.270Z,8.37
2019-05-22T08:44:03.373Z,11.43
2019-05-22T08:46:11.119Z,13.27
2019-05-22T08:48:48.009Z,10.90
2019-05-22T08:51:13.665Z,10.27
2019-05-22T08:53:48.396Z,10.40
2019-05-22T08:56:14.629Z,11.10
2019-05-22T08:58:45.060Z,8.23
2019-05-22T09:01:15.130Z,10.37
2019-05-22T09:03:44.127Z,8.87
2019-05-22T09:06:12.833Z,8.40
2019-05-22T09:08:44.310Z,7.70
2019-05-22T09:11:13.206Z,7.33
2019-05-22T09:13:41.955Z,11.10
2019-05-22T09:16:12.470Z,11.13
2019-05-22T09:18:41.103Z,9.57
2019-05-22T09:21:10.321Z,9.77
2019-05-22T09:23:39.014Z,10.77
2019-05-22T09:26:08.523Z,7.83
2019-05-22T09:28:37.930Z,9.73
2019-05-22T09:31:06.431Z,9.67
2019-05-22T09:33:37.684Z,8.00
2019-05-22T09:36:06.995Z,8.57
2019-05-22T09:38:35.966Z,9.33
2019-05-22T09:41:04.966Z,5.73
2019-05-22T09:43:33.618Z,5.97
2019-05-22T09:46:03.455Z,8.40
2019-05-22T09:48:33.902Z,9.13
2019-05-22T09:51:02.744Z,8.13
2019-05-22T09:53:32.111Z,6.03
2019-05-22T09:56:00.971Z,8.40
2019-05-22T09:58:30.246Z,6.60
2019-05-22T10:00:59.478Z,7.07
2019-05-22T10:03:28.168Z,6.03
2019-05-22T10:05:56.886Z,7.63
2019-05-22T10:08:25.540Z,6.23
2019-05-22T10:10:54.676Z,5.83
2019-05-22T10:13:23.836Z,5.37
2019-05-22T10:15:52.797Z,6.93
2019-05-22T10:18:21.509Z,8.57
2019-05-22T10:20:55.130Z,5.83
2019-05-22T10:23:23.804Z,5.23
2019-05-22T10:25:52.500Z,7.93
2019-05-22T10:28:21.815Z,7.77
2019-05-22T10:30:51.419Z,6.90
2019-05-22T10:33:20.328Z,7.93
2019-05-22T10:35:49.967Z,10.40
2019-05-22T10:38:18.460Z,6.93
2019-05-22T10:40:47.859Z,6.97
2019-05-22T10:43:16.766Z,8.90
2019-05-22T10:45:46.432Z,5.43
2019-05-22T10:48:14.946Z,7.23
2019-05-22T10:50:43.590Z,6.40
2019-05-22T10:53:12.859Z,7.30
2019-05-22T10:55:41.990Z,7.37
2019-05-22T10:58:10.844Z,7.20
2019-05-22T11:00:39.778Z,7.90
2019-05-22T11:03:08.873Z,8.70
2019-05-22T11:05:37.419Z,10.80
2019-05-22T11:08:06.659Z,10.37
2019-05-22T11:10:35.597Z,8.70
2019-05-22T11:13:05.100Z,9.70
2019-05-22T11:15:33.831Z,10.23
2019-05-22T11:18:03.407Z,8.97
2019-05-22T11:20:33.279Z,9.60
2019-05-22T11:23:02.420Z,9.37
2019-05-22T11:25:31.478Z,11.73
2019-05-22T11:28:00.014Z,13.40
2019-05-22T11:30:29.572Z,11.90
2019-05-22T11:32:59.166Z,13.10
2019-05-22T11:35:29.145Z,15.40
2019-05-22T11:37:58.026Z,14.13
2019-05-22T11:40:26.998Z,19.10
2019-05-22T11:42:55.833Z,19.90
2019-05-22T11:45:25.112Z,17.07
2019-05-22T11:47:54.654Z,16.60
2019-05-22T11:50:25.581Z,16.00
2019-05-22T11:52:54.679Z,18.57
2019-05-22T11:55:40.768Z,17.90
2019-05-22T11:57:54.406Z,19.40
2019-05-22T12:00:23.631Z,21.17
2019-05-22T12:02:52.593Z,20.30
2019-05-22T12:05:23.001Z,22.93
2019-05-22T12:07:52.716Z,21.47
2019-05-22T12:10:22.725Z,21.50
2019-05-22T12:12:53.599Z,20.13
2019-05-22T12:15:26.627Z,22.73
2019-05-22T12:17:55.762Z,22.00
2019-05-22T12:20:26.333Z,21.77
2019-05-22T12:22:55.689Z,21.00
2019-05-22T12:25:25.824Z,23.30
2019-05-22T12:27:56.802Z,23.27
2019-05-22T12:30:26.979Z,20.17
2019-05-22T12:32:56.928Z,20.50
2019-05-22T12:35:26.664Z,21.53
2019-05-22T12:37:55.927Z,21.83
2019-05-22T12:40:25.130Z,23.57
2019-05-22T12:42:53.762Z,22.37
2019-05-22T12:45:28.902Z,23.90
2019-05-22T12:47:57.792Z,25.97
2019-05-22T12:50:29.971Z,24.83
2019-05-22T12:53:01.303Z,22.63
2019-05-22T12:55:30.677Z,18.93
2019-05-22T12:58:00.611Z,21.20
2019-05-22T13:00:31.451Z,20.23
2019-05-22T13:03:02.135Z,18.17
2019-05-22T13:05:31.413Z,21.80
2019-05-22T13:08:00.152Z,20.87
2019-05-22T13:10:29.389Z,22.20
2019-05-22T13:12:59.500Z,25.60
2019-05-22T13:15:28.368Z,20.17
2019-05-22T13:17:59.491Z,22.30
2019-05-22T13:20:42.039Z,19.67
2019-05-22T13:23:03.788Z,23.10
2019-05-22T13:25:35.996Z,21.47
2019-05-22T13:28:07.869Z,21.17
2019-05-22T13:30:39.391Z,23.60
2019-05-22T13:33:11.513Z,19.63
2019-05-22T13:35:41.825Z,21.47
2019-05-22T13:38:12.905Z,21.23
2019-05-22T13:40:42.682Z,22.60
2019-05-22T13:43:11.782Z,20.50
2019-05-22T13:45:40.475Z,19.97
2019-05-22T13:48:09.475Z,21.73
2019-05-22T13:50:38.451Z,20.50
2019-05-22T13:53:08.772Z,23.00
2019-05-22T13:55:37.319Z,23.07
2019-05-22T13:58:07.259Z,20.53
2019-05-22T14:00:37.541Z,24.07
2019-05-22T14:03:06.696Z,23.47
2019-05-22T14:05:36.495Z,22.40
2019-05-22T14:08:06.289Z,24.17
2019-05-22T14:10:35.273Z,26.73
2019-05-22T14:13:04.472Z,23.90
2019-05-22T14:15:50.026Z,21.70
2019-05-22T14:18:04.084Z,26.37
2019-05-22T14:20:32.654Z,22.20
2019-05-22T14:23:01.341Z,21.60
2019-05-22T14:25:30.840Z,21.13
2019-05-22T14:27:59.688Z,24.63
2019-05-22T14:30:28.771Z,27.17
2019-05-22T14:33:04.187Z,27.90
2019-05-22T14:35:46.886Z,24.73
2019-05-22T14:38:07.827Z,22.33
2019-05-22T14:40:37.986Z,22.60
2019-05-22T14:43:10.792Z,20.63
2019-05-22T14:45:39.442Z,22.67
2019-05-22T14:48:09.289Z,24.37
2019-05-22T14:50:38.325Z,18.40
2019-05-22T14:53:07.476Z,18.17
2019-05-22T14:55:37.206Z,20.60
2019-05-22T14:58:07.028Z,18.93
2019-05-22T15:00:36.829Z,16.87
2019-05-22T15:03:07.959Z,24.07
2019-05-22T15:05:38.266Z,20.47
2019-05-22T15:08:07.411Z,19.10
2019-05-22T15:10:37.315Z,23.43
2019-05-22T15:13:06.199Z,20.30
2019-05-22T15:15:40.084Z,19.63
2019-05-22T15:18:06.398Z,20.77
2019-05-22T15:20:41.690Z,21.10
2019-05-22T15:23:15.746Z,20.13
2019-05-22T15:25:44.412Z,18.83
2019-05-22T15:28:17.357Z,19.70
2019-05-22T15:30:49.110Z,18.13
2019-05-22T15:33:17.718Z,19.13
2019-05-22T15:35:48.810Z,19.83
2019-05-22T15:38:18.091Z,20.60
2019-05-22T15:40:49.509Z,20.53
2019-05-22T15:43:18.405Z,26.87
2019-05-22T15:45:49.675Z,22.33
2019-05-22T15:48:20.610Z,16.90
2019-05-22T15:50:51.301Z,23.33
2019-05-22T15:53:30.300Z,16.93
2019-05-22T15:56:00.569Z,18.07
2019-05-22T15:58:31.456Z,15.47
2019-05-22T16:01:04.278Z,17.17
2019-05-22T16:03:33.210Z,17.43
2019-05-22T16:06:02.946Z,20.43
2019-05-22T16:08:32.215Z,19.93
2019-05-22T16:11:02.141Z,20.03
2019-05-22T16:13:34.095Z,14.03
2019-05-22T16:16:06.433Z,14.30
2019-05-22T16:18:36.221Z,16.37
2019-05-22T16:21:06.890Z,16.63
2019-05-22T16:23:37.546Z,14.13
2019-05-22T16:26:09.984Z,14.87
2019-05-22T16:28:40.970Z,17.10
2019-05-22T16:31:12.564Z,13.50
2019-05-22T16:33:43.897Z,12.87
2019-05-22T16:36:14.217Z,16.30
2019-05-22T16:38:44.414Z,16.67
2019-05-22T16:41:13.586Z,17.60
2019-05-22T16:43:49.767Z,18.17
2019-05-22T16:46:16.939Z,17.43
2019-05-22T16:48:48.334Z,13.70
2019-05-22T16:51:18.516Z,13.87
2019-05-22T16:53:55.857Z,15.97
2019-05-22T16:56:26.457Z,16.80
2019-05-22T16:58:56.124Z,12.97
2019-05-22T17:01:26.198Z,12.70
2019-05-22T17:03:58.469Z,15.40
2019-05-22T17:06:30.848Z,12.37
2019-05-22T17:09:01.551Z,12.83
2019-05-22T17:11:31.615Z,15.17
2019-05-22T17:14:03.489Z,14.47
2019-05-22T17:16:34.270Z,14.53
2019-05-22T17:19:17.568Z,17.83
2019-05-22T17:21:35.654Z,12.93
2019-05-22T17:24:05.763Z,11.77
2019-05-22T17:26:35.290Z,13.40
2019-05-22T17:29:04.491Z,14.10
2019-05-22T17:31:33.434Z,12.57
2019-05-22T17:34:02.955Z,14.17
2019-05-22T17:36:32.003Z,13.60
2019-05-22T17:39:02.047Z,15.00
2019-05-22T17:41:32.601Z,12.63
2019-05-22T17:44:04.242Z,9.77
2019-05-22T17:46:34.482Z,12.73
2019-05-22T17:49:03.641Z,10.57
2019-05-22T17:51:32.226Z,10.93
2019-05-22T17:54:01.411Z,9.50
2019-05-22T17:56:30.519Z,9.87
2019-05-22T17:58:59.482Z,12.67
2019-05-22T18:01:28.819Z,13.20
2019-05-22T18:03:57.457Z,7.90
2019-05-22T18:06:26.340Z,8.50
2019-05-22T18:08:55.419Z,8.10
2019-05-22T18:11:24.344Z,7.10
2019-05-22T18:14:02.331Z,9.57
2019-05-22T18:16:31.700Z,9.03
2019-05-22T18:19:00.250Z,11.03
2019-05-22T18:21:28.726Z,13.07
2019-05-22T18:23:57.299Z,9.37
2019-05-22T18:26:26.037Z,17.00
2019-05-22T18:28:54.750Z,11.07
2019-05-22T18:31:23.635Z,10.60
2019-05-22T18:33:52.144Z,11.23
2019-05-22T18:36:20.623Z,13.30
2019-05-22T18:38:49.233Z,9.70
2019-05-22T18:41:17.832Z,12.63
2019-05-22T18:43:46.581Z,8.97
2019-05-22T18:46:15.335Z,7.00
2019-05-22T18:48:44.106Z,8.83
2019-05-22T18:51:13.335Z,11.23
2019-05-22T18:53:42.378Z,8.90
2019-05-22T18:56:11.653Z,10.70
2019-05-22T18:58:40.965Z,8.63
2019-05-22T19:01:09.688Z,8.80
2019-05-22T19:03:38.949Z,7.47
2019-05-22T19:06:07.636Z,5.83
2019-05-22T19:08:36.430Z,6.17
2019-05-22T19:11:05.274Z,7.83
2019-05-22T19:13:33.881Z,7.77
2019-05-22T19:16:02.456Z,7.70
2019-05-22T19:18:50.190Z,8.00
2019-05-22T19:21:18.700Z,6.90
2019-05-22T19:23:47.280Z,8.93
2019-05-22T19:26:15.942Z,9.57
2019-05-22T19:28:44.836Z,9.87
2019-05-22T19:31:13.891Z,5.13
2019-05-22T19:33:42.530Z,8.67
2019-05-22T19:36:11.188Z,9.00
2019-05-22T19:38:40.019Z,9.40
2019-05-22T19:41:08.781Z,7.80
2019-05-22T19:43:37.838Z,7.83
2019-05-22T19:46:06.990Z,6.00
2019-05-22T19:48:35.639Z,7.13
2019-05-22T19:51:04.977Z,7.70
2019-05-22T19:53:33.607Z,9.17
2019-05-22T19:56:02.460Z,10.77
2019-05-22T19:58:32.003Z,10.63
2019-05-22T20:01:00.550Z,7.70
2019-05-22T20:03:34.761Z,8.63
2019-05-22T20:06:03.527Z,4.67
2019-05-22T20:08:36.173Z,7.67
2019-05-22T20:11:03.830Z,13.63
2019-05-22T20:13:32.654Z,6.10
2019-05-22T20:16:01.203Z,9.07
2019-05-22T20:21:04.603Z,8.13
2019-05-22T20:23:36.407Z,7.40
2019-05-22T20:26:03.932Z,7.13
2019-05-22T20:28:33.035Z,7.28
2019-05-22T20:31:01.534Z,6.63
2019-05-22T20:33:30.017Z,6.80
2019-05-22T20:35:58.799Z,4.67
2019-05-22T20:38:27.761Z,7.87
2019-05-22T20:40:56.361Z,6.37
2019-05-22T20:43:25.641Z,6.93
2019-05-22T20:45:55.708Z,5.67
2019-05-22T20:48:27.192Z,7.53
2019-05-22T20:50:59.836Z,7.53
2019-05-22T20:53:30.322Z,7.93
2019-05-22T20:55:59.946Z,5.83
2019-05-22T20:58:30.663Z,7.33
2019-05-22T21:01:00.735Z,8.83
2019-05-22T21:03:31.822Z,9.13
2019-05-22T21:06:03.713Z,5.27
2019-05-22T21:08:32.401Z,9.90
2019-05-22T21:11:01.561Z,7.20
2019-05-22T21:13:31.693Z,8.43
2019-05-22T21:16:01.348Z,5.93
2019-05-22T21:18:31.984Z,8.37
2019-05-22T21:21:00.946Z,7.87
2019-05-22T21:23:29.892Z,5.93
2019-05-22T21:25:58.590Z,6.63
2019-05-22T21:28:28.058Z,8.70
2019-05-22T21:30:57.709Z,8.87
2019-05-22T21:33:26.907Z,7.07
2019-05-22T21:35:55.402Z,10.00
2019-05-22T21:38:24.841Z,5.90
2019-05-22T21:40:55.487Z,11.03
2019-05-22T21:43:24.529Z,6.23
2019-05-22T21:45:53.301Z,5.83
2019-05-22T21:48:22.720Z,7.57
2019-05-22T21:50:51.706Z,5.77
2019-05-22T21:53:20.896Z,7.27
2019-05-22T21:56:03.610Z,6.43
2019-05-22T21:58:20.599Z,5.47
2019-05-22T22:00:57.252Z,6.53
2019-05-22T22:03:47.785Z,7.63
2019-05-22T22:06:17.012Z,9.20
2019-05-22T22:08:47.927Z,11.40
2019-05-22T22:11:18.519Z,7.53
2019-05-22T22:13:47.929Z,7.67
2019-05-22T22:16:17.667Z,7.20
2019-05-22T22:18:46.707Z,7.53
2019-05-22T22:21:15.909Z,8.57
2019-05-22T22:23:45.491Z,8.40
2019-05-22T22:26:25.547Z,7.80
2019-05-22T22:28:45.093Z,6.57
2019-05-22T22:31:16.053Z,6.73
2019-05-22T22:33:47.606Z,5.53
2019-05-22T22:36:16.832Z,8.20
2019-05-22T22:38:46.622Z,7.70
2019-05-22T22:41:15.661Z,6.97
2019-05-22T22:43:48.489Z,11.77
2019-05-22T22:46:39.769Z,7.23
2019-05-22T22:49:11.626Z,8.03
2019-05-22T22:51:40.766Z,7.90
2019-05-22T22:54:09.961Z,8.93
2019-05-22T22:56:39.268Z,8.47
2019-05-22T22:59:08.243Z,5.03
2019-05-22T23:01:41.693Z,6.83
2019-05-22T23:04:12.289Z,5.43
2019-05-22T23:06:41.446Z,7.87
2019-05-22T23:09:11.718Z,7.80
2019-05-22T23:11:43.168Z,8.80
2019-05-22T23:14:12.837Z,5.10
2019-05-22T23:16:42.017Z,9.77
2019-05-22T23:19:15.228Z,5.47
2019-05-22T23:21:44.218Z,6.27
2019-05-22T23:24:13.256Z,8.43
2019-05-22T23:26:41.850Z,8.00
2019-05-22T23:29:11.737Z,8.03
2019-05-22T23:31:40.366Z,6.60
2019-05-22T23:34:10.099Z,6.23
2019-05-22T23:36:39.231Z,5.03
2019-05-22T23:39:13.017Z,8.37
2019-05-22T23:41:42.333Z,8.07
2019-05-22T23:44:12.464Z,8.00
2019-05-22T23:46:43.106Z,9.53
2019-05-22T23:49:12.853Z,7.80
2019-05-22T23:51:42.292Z,7.67
2019-05-22T23:54:10.961Z,6.37
2019-05-22T23:56:40.087Z,7.00
2019-05-22T23:59:10.612Z,5.87
